Time;durP1;ratioP1;P1;durP2;ratioP2;P2;SDS_P1;SDS_P2;PMS_P1;PMS_P2;Temp;Humidity;BMP_temperature;BMP_pressure;BME280_temperature;BME280_humidity;BME280_pressure;Samples;Min_cycle;Max_cycle;Signal;HPM_P1;HPM_P2
2021/05/28 00:02:12;;;;;;;4.55;2.90;;;11.90;99.90;;;;;;5110369;28;20038;-75
2021/05/28 00:04:37;;;;;;;6.22;3.72;;;11.90;99.90;;;;;;5111182;28;20051;-75
2021/05/28 00:07:03;;;;;;;5.63;3.47;;;11.90;99.90;;;;;;5110645;28;20451;-75
2021/05/28 00:09:30;;;;;;;4.80;3.20;;;12.00;99.90;;;;;;5111085;28;20108;-75
2021/05/28 00:11:56;;;;;;;4.78;3.38;;;12.00;99.90;;;;;;5110573;28;20083;-75
2021/05/28 00:14:22;;;;;;;7.60;3.65;;;12.00;99.90;;;;;;5110903;28;20035;-75
2021/05/28 00:16:47;;;;;;;6.10;3.38;;;11.90;99.90;;;;;;5110623;28;20110;-75
2021/05/28 00:19:13;;;;;;;5.53;3.10;;;11.90;99.90;;;;;;5108317;28;20138;-74
2021/05/28 00:21:39;;;;;;;7.18;3.80;;;11.90;99.90;;;;;;5110357;28;20066;-75
2021/05/28 00:24:05;;;;;;;6.88;3.75;;;11.90;99.90;;;;;;5110478;28;20028;-75
2021/05/28 00:26:31;;;;;;;6.78;3.88;;;11.90;99.90;;;;;;5109361;28;20031;-75
2021/05/28 00:28:57;;;;;;;9.57;3.75;;;11.90;99.90;;;;;;5108426;28;20053;-75
2021/05/28 00:31:23;;;;;;;6.43;4.13;;;11.90;99.90;;;;;;5109294;28;20144;-76
2021/05/28 00:33:49;;;;;;;5.90;3.67;;;11.90;99.90;;;;;;5109184;28;20026;-75
2021/05/28 00:36:17;;;;;;;6.90;3.65;;;11.90;99.90;;;;;;5108620;28;20365;-75
2021/05/28 00:38:43;;;;;;;8.60;4.15;;;11.90;99.90;;;;;;5110530;28;20055;-75
2021/05/28 00:41:09;;;;;;;10.65;4.03;;;11.90;99.90;;;;;;5108480;28;20024;-74
2021/05/28 00:43:35;;;;;;;7.93;3.78;;;11.90;99.90;;;;;;5108984;28;20417;-74
2021/05/28 00:46:01;;;;;;;7.43;4.07;;;11.90;99.90;;;;;;5109603;28;20027;-75
2021/05/28 00:48:26;;;;;;;6.00;3.40;;;11.90;99.90;;;;;;5108966;28;20036;-75
2021/05/28 00:50:52;;;;;;;5.07;3.65;;;11.90;99.90;;;;;;5108976;28;20491;-75
2021/05/28 00:53:18;;;;;;;6.53;3.92;;;11.90;99.90;;;;;;5108651;28;20047;-74
2021/05/28 00:55:44;;;;;;;6.07;4.22;;;11.90;99.90;;;;;;5108405;28;20039;-74
2021/05/28 00:58:10;;;;;;;4.53;3.90;;;11.90;99.90;;;;;;5109680;28;20054;-74
2021/05/28 01:00:36;;;;;;;6.55;4.18;;;11.80;99.90;;;;;;5108873;28;20469;-75
2021/05/28 01:03:02;;;;;;;8.68;4.22;;;11.80;99.90;;;;;;5108174;28;20035;-75
2021/05/28 01:05:27;;;;;;;6.13;4.25;;;11.70;99.90;;;;;;5110318;28;20433;-74
2021/05/28 01:07:54;;;;;;;9.07;4.65;;;11.70;99.90;;;;;;5109853;28;20106;-75
2021/05/28 01:10:20;;;;;;;7.63;5.30;;;11.70;99.90;;;;;;5110260;28;20028;-74
2021/05/28 01:12:45;;;;;;;7.20;4.63;;;11.70;99.90;;;;;;5108726;28;20383;-74
2021/05/28 01:15:11;;;;;;;8.70;4.50;;;11.70;99.90;;;;;;5108140;28;20023;-74
2021/05/28 01:17:37;;;;;;;6.68;4.97;;;11.70;99.90;;;;;;5110036;28;20499;-75
2021/05/28 01:20:06;;;;;;;7.97;4.50;;;11.80;99.90;;;;;;5109529;28;20139;-74
2021/05/28 01:22:32;;;;;;;5.00;4.20;;;11.80;99.90;;;;;;5108580;28;20040;-74
2021/05/28 01:25:00;;;;;;;8.30;4.25;;;11.80;99.90;;;;;;5109729;28;20058;-75
2021/05/28 01:27:27;;;;;;;5.18;4.43;;;11.80;99.90;;;;;;5111069;28;20104;-75
2021/05/28 01:29:53;;;;;;;7.47;5.38;;;11.80;99.90;;;;;;5113617;28;20027;-75
2021/05/28 01:32:19;;;;;;;6.97;4.82;;;11.80;99.90;;;;;;5111710;28;20116;-73
2021/05/28 01:34:44;;;;;;;7.43;4.30;;;11.80;99.90;;;;;;5113748;28;20479;-75
2021/05/28 01:37:10;;;;;;;7.82;4.72;;;11.80;99.90;;;;;;5113246;28;20096;-74
2021/05/28 01:39:46;;;;;;;8.68;4.90;;;11.80;99.90;;;;;;5112411;28;20027;-74
2021/05/28 01:42:12;;;;;;;7.38;5.18;;;11.90;99.90;;;;;;5111564;28;20047;-75
2021/05/28 01:44:38;;;;;;;7.22;4.43;;;11.90;99.90;;;;;;5113540;28;20085;-75
2021/05/28 01:47:03;;;;;;;8.27;4.72;;;11.90;99.90;;;;;;5111261;28;20055;-75
2021/05/28 01:49:29;;;;;;;11.00;5.82;;;11.90;99.90;;;;;;5112257;28;20034;-75
2021/05/28 01:51:55;;;;;;;6.65;4.68;;;11.90;99.90;;;;;;5113724;28;20063;-75
2021/05/28 01:54:22;;;;;;;7.53;5.20;;;11.80;99.90;;;;;;5112592;28;20209;-75
2021/05/28 01:56:48;;;;;;;7.80;4.95;;;11.80;99.90;;;;;;5113254;28;20089;-76
2021/05/28 01:59:24;;;;;;;7.60;5.35;;;11.90;99.90;;;;;;5111224;28;20039;-75
2021/05/28 02:01:51;;;;;;;8.63;6.18;;;11.80;99.90;;;;;;5111939;28;20034;-75
2021/05/28 02:04:17;;;;;;;8.52;6.07;;;11.70;99.90;;;;;;5111287;28;20445;-75
2021/05/28 02:06:43;;;;;;;10.35;6.28;;;11.60;99.90;;;;;;5113025;28;20511;-75
2021/05/28 02:09:09;;;;;;;8.77;6.25;;;11.50;99.90;;;;;;5112291;28;20027;-75
2021/05/28 02:11:34;;;;;;;10.05;6.47;;;11.60;99.90;;;;;;5111566;28;20456;-75
2021/05/28 02:14:00;;;;;;;13.65;5.85;;;11.50;99.90;;;;;;5111143;28;20030;-76
2021/05/28 02:16:25;;;;;;;8.45;6.63;;;11.50;99.90;;;;;;5112872;28;20028;-76
2021/05/28 02:18:51;;;;;;;9.55;6.47;;;11.50;99.90;;;;;;5113191;28;20047;-76
2021/05/28 02:21:18;;;;;;;13.75;6.75;;;11.50;99.90;;;;;;5113795;27;20316;-75
2021/05/28 02:23:43;;;;;;;11.20;6.65;;;11.50;99.90;;;;;;5112978;28;20039;-75
2021/05/28 02:26:09;;;;;;;12.88;6.57;;;11.50;99.90;;;;;;5111735;28;20111;-75
2021/05/28 02:28:35;;;;;;;11.13;6.57;;;11.60;99.90;;;;;;5112318;28;20492;-74
2021/05/28 02:31:00;;;;;;;8.40;6.00;;;11.50;99.90;;;;;;5111880;28;20085;-75
2021/05/28 02:33:26;;;;;;;13.90;6.53;;;11.60;99.90;;;;;;5111237;28;20109;-75
2021/05/28 02:35:52;;;;;;;9.30;6.07;;;11.60;99.90;;;;;;5112076;28;20029;-75
2021/05/28 02:38:17;;;;;;;10.13;6.05;;;11.60;99.90;;;;;;5111698;28;20330;-75
2021/05/28 02:40:43;;;;;;;11.00;6.80;;;11.50;99.90;;;;;;5112028;28;20450;-75
2021/05/28 02:43:08;;;;;;;10.13;6.43;;;11.50;99.90;;;;;;5109924;28;20032;-75
2021/05/28 02:45:34;;;;;;;11.73;7.03;;;11.40;99.90;;;;;;5110784;28;20030;-75
2021/05/28 02:48:00;;;;;;;11.65;6.78;;;11.40;99.90;;;;;;5109939;28;20038;-77
2021/05/28 02:50:26;;;;;;;11.70;7.25;;;11.40;99.90;;;;;;5112429;28;20487;-75
2021/05/28 02:52:51;;;;;;;11.80;6.85;;;11.40;99.90;;;;;;5110751;28;20034;-74
2021/05/28 02:55:17;;;;;;;7.45;5.88;;;11.40;99.90;;;;;;5109729;28;20410;-75
2021/05/28 02:57:43;;;;;;;11.70;6.68;;;11.50;99.90;;;;;;5110399;28;20019;-75
2021/05/28 03:00:09;;;;;;;16.85;7.20;;;11.50;99.90;;;;;;5110955;28;20035;-74
2021/05/28 03:02:35;;;;;;;11.68;7.00;;;11.50;99.90;;;;;;5111596;28;20031;-75
2021/05/28 03:05:01;;;;;;;9.43;7.07;;;11.50;99.90;;;;;;5110052;28;20051;-75
2021/05/28 03:07:26;;;;;;;16.40;7.65;;;11.50;99.90;;;;;;5110124;28;20119;-75
2021/05/28 03:09:52;;;;;;;9.88;7.13;;;11.60;99.90;;;;;;5110150;28;20028;-75
2021/05/28 03:12:18;;;;;;;11.00;7.15;;;11.50;99.90;;;;;;5109501;28;20028;-75
2021/05/28 03:14:43;;;;;;;12.20;7.63;;;11.50;99.90;;;;;;5111342;28;20153;-75
2021/05/28 03:17:09;;;;;;;11.85;7.40;;;11.50;99.90;;;;;;5109361;28;20020;-75
2021/05/28 03:19:44;;;;;;;11.18;8.07;;;11.50;99.90;;;;;;5109977;28;20056;-75
2021/05/28 03:22:34;;;;;;;10.68;7.28;;;11.50;99.90;;;;;;5108912;28;20349;-75
2021/05/28 03:25:09;;;;;;;9.48;6.75;;;11.50;99.90;;;;;;5109933;28;20365;-74
2021/05/28 03:27:36;;;;;;;12.57;8.05;;;11.50;99.90;;;;;;5110983;28;20055;-76
2021/05/28 03:30:04;;;;;;;11.27;6.60;;;11.50;99.90;;;;;;5109633;28;20023;-74
2021/05/28 03:32:29;;;;;;;31.75;7.35;;;11.50;99.90;;;;;;5109647;28;20023;-75
2021/05/28 03:34:56;;;;;;;10.65;7.90;;;11.60;99.90;;;;;;5109845;28;20522;-74
2021/05/28 03:37:23;;;;;;;12.48;7.50;;;11.50;99.90;;;;;;5109136;28;20032;-74
2021/05/28 03:39:49;;;;;;;10.48;7.32;;;11.50;99.90;;;;;;5109167;28;20057;-74
2021/05/28 03:42:15;;;;;;;13.77;7.22;;;11.50;99.90;;;;;;5108975;28;20028;-75
2021/05/28 03:44:41;;;;;;;16.00;8.18;;;11.40;99.90;;;;;;5111071;28;20110;-75
2021/05/28 03:47:07;;;;;;;11.25;7.20;;;11.50;99.90;;;;;;5108361;28;20050;-74
2021/05/28 03:49:33;;;;;;;12.30;7.25;;;11.50;99.90;;;;;;5110552;28;20031;-74
2021/05/28 03:51:58;;;;;;;14.98;7.53;;;11.60;99.90;;;;;;5110471;28;20381;-75
2021/05/28 03:54:24;;;;;;;9.23;7.07;;;11.60;99.90;;;;;;5110106;28;20031;-74
2021/05/28 03:56:50;;;;;;;10.18;7.22;;;11.60;99.90;;;;;;5110965;28;20028;-74
2021/05/28 03:59:16;;;;;;;14.35;7.55;;;11.60;99.90;;;;;;5108705;28;20039;-74
2021/05/28 04:01:41;;;;;;;10.05;7.63;;;11.60;99.90;;;;;;5110775;28;20186;-75
2021/05/28 04:04:07;;;;;;;14.90;8.23;;;11.50;99.90;;;;;;5109969;28;20059;-75
2021/05/28 04:06:33;;;;;;;11.23;7.85;;;11.50;99.90;;;;;;5110742;28;20118;-73
2021/05/28 04:08:58;;;;;;;14.38;8.05;;;11.40;99.90;;;;;;5110364;28;20039;-74
2021/05/28 04:11:24;;;;;;;15.98;7.95;;;11.40;99.90;;;;;;5108590;28;20294;-75
2021/05/28 04:13:50;;;;;;;10.98;7.47;;;11.40;99.90;;;;;;5108928;28;20458;-75
2021/05/28 04:16:16;;;;;;;11.23;7.70;;;11.50;99.90;;;;;;5108360;28;20126;-75
2021/05/28 04:18:42;;;;;;;18.23;8.23;;;11.40;99.90;;;;;;5110645;28;20146;-75
2021/05/28 04:21:07;;;;;;;11.32;8.07;;;11.50;99.90;;;;;;5108447;28;20385;-76
2021/05/28 04:23:33;;;;;;;12.98;8.32;;;11.50;99.90;;;;;;5108934;28;20119;-75
2021/05/28 04:26:00;;;;;;;10.52;7.63;;;11.60;99.90;;;;;;5110383;28;20055;-74
2021/05/28 04:28:27;;;;;;;11.13;8.48;;;11.60;99.90;;;;;;5110050;28;20027;-75
2021/05/28 04:30:53;;;;;;;13.88;9.10;;;11.60;99.90;;;;;;5110525;28;20043;-75
2021/05/28 04:33:19;;;;;;;10.70;7.75;;;11.70;99.90;;;;;;5109729;28;20077;-74
2021/05/28 04:35:45;;;;;;;11.80;7.75;;;11.70;99.90;;;;;;5110562;28;20042;-75
2021/05/28 04:38:10;;;;;;;14.32;9.45;;;11.80;99.90;;;;;;5108647;28;20456;-75
2021/05/28 04:40:36;;;;;;;15.73;8.52;;;11.80;99.90;;;;;;5110208;28;20075;-75
2021/05/28 04:43:02;;;;;;;8.73;7.10;;;11.80;99.90;;;;;;5110255;28;20032;-75
2021/05/28 04:45:27;;;;;;;11.68;7.38;;;11.90;99.90;;;;;;5109495;28;20023;-73
2021/05/28 04:47:54;;;;;;;9.90;6.78;;;11.90;99.90;;;;;;5109853;28;20421;-73
2021/05/28 04:50:20;;;;;;;13.02;7.65;;;12.00;99.90;;;;;;5107970;28;20027;-73
2021/05/28 04:52:46;;;;;;;16.13;7.78;;;12.00;99.90;;;;;;5108810;28;20026;-73
2021/05/28 04:55:13;;;;;;;10.48;6.90;;;12.00;99.90;;;;;;5109778;28;20028;-73
2021/05/28 04:57:39;;;;;;;8.73;6.78;;;12.00;99.90;;;;;;5108635;28;20039;-73
2021/05/28 05:00:07;;;;;;;9.43;6.75;;;12.00;99.90;;;;;;5108481;28;20435;-73
2021/05/28 05:02:33;;;;;;;11.52;7.07;;;12.10;99.90;;;;;;5111336;28;20081;-72
2021/05/28 05:04:59;;;;;;;11.52;6.97;;;12.10;99.90;;;;;;5112752;28;20070;-72
2021/05/28 05:07:25;;;;;;;11.48;6.35;;;12.10;99.90;;;;;;5111931;28;20038;-72
2021/05/28 05:09:50;;;;;;;9.85;6.60;;;12.30;99.90;;;;;;5112591;28;20157;-73
2021/05/28 05:12:16;;;;;;;7.63;6.18;;;12.30;99.90;;;;;;5112989;28;20110;-73
2021/05/28 05:14:42;;;;;;;11.40;7.10;;;12.40;99.90;;;;;;5113573;28;20031;-74
2021/05/28 05:17:07;;;;;;;9.35;7.03;;;12.40;99.90;;;;;;5113634;28;20115;-73
2021/05/28 05:19:33;;;;;;;9.05;7.22;;;12.40;99.90;;;;;;5111207;28;20051;-73
2021/05/28 05:21:59;;;;;;;8.70;6.45;;;12.40;99.90;;;;;;5113709;28;20107;-73
2021/05/28 05:24:24;;;;;;;10.45;6.15;;;12.40;99.90;;;;;;5107828;28;20093;-72
2021/05/28 05:26:50;;;;;;;9.63;6.45;;;12.40;99.90;;;;;;5105148;28;20023;-72
2021/05/28 05:29:16;;;;;;;11.23;6.18;;;12.50;99.90;;;;;;5113194;28;20472;-72
2021/05/28 05:31:42;;;;;;;12.90;6.60;;;12.50;99.90;;;;;;5112622;28;20030;-73
2021/05/28 05:34:07;;;;;;;9.13;3.45;;;12.60;99.90;;;;;;5113614;28;20043;-68
2021/05/28 05:36:35;;;;;;;9.48;5.70;;;12.90;99.90;;;;;;5111505;28;20024;-69
2021/05/28 05:39:03;;;;;;;10.25;5.60;;;13.30;99.90;;;;;;5113618;28;20467;-68
2021/05/28 05:41:29;;;;;;;11.55;5.93;;;13.40;99.90;;;;;;5113184;28;20030;-67
2021/05/28 05:43:55;;;;;;;8.65;5.93;;;13.30;99.90;;;;;;5112219;28;20023;-68
2021/05/28 05:46:21;;;;;;;6.43;5.22;;;13.60;99.90;;;;;;5110112;28;20028;-73
2021/05/28 05:48:46;;;;;;;9.52;5.95;;;13.70;99.90;;;;;;5111219;28;20040;-76
2021/05/28 05:51:12;;;;;;;9.70;5.43;;;13.40;99.90;;;;;;5109837;28;20051;-74
2021/05/28 05:53:38;;;;;;;6.70;4.95;;;13.30;99.90;;;;;;5111771;28;20349;-76
2021/05/28 05:56:04;;;;;;;11.50;5.80;;;13.20;99.90;;;;;;5110088;28;20034;-75
2021/05/28 05:58:29;;;;;;;10.27;7.07;;;13.00;99.90;;;;;;5111034;28;20465;-75
2021/05/28 06:00:55;;;;;;;8.48;4.95;;;13.00;99.90;;;;;;5111813;28;20461;-77
2021/05/28 06:03:21;;;;;;;8.40;5.05;;;12.90;99.90;;;;;;5110634;28;20024;-75
2021/05/28 06:05:46;;;;;;;9.40;5.40;;;13.00;99.90;;;;;;5110785;28;20370;-76
2021/05/28 06:08:12;;;;;;;11.20;5.40;;;13.00;99.90;;;;;;5109037;28;20040;-75
2021/05/28 06:10:38;;;;;;;7.72;6.60;;;13.10;99.90;;;;;;5110109;28;20034;-76
2021/05/28 06:13:07;;;;;;;9.82;5.07;;;13.20;99.90;;;;;;5110968;28;20031;-76
2021/05/28 06:15:34;;;;;;;8.15;5.10;;;13.40;99.90;;;;;;5110509;28;20081;-77
2021/05/28 06:18:00;;;;;;;9.32;4.40;;;13.40;99.90;;;;;;5109904;28;20039;-75
2021/05/28 06:20:27;;;;;;;8.88;5.35;;;13.40;99.90;;;;;;5110135;28;20468;-77
2021/05/28 06:22:52;;;;;;;10.23;4.32;;;13.60;99.90;;;;;;5109812;28;20119;-74
2021/05/28 06:25:18;;;;;;;8.70;4.32;;;13.50;99.90;;;;;;5110490;28;20098;-75
2021/05/28 06:27:44;;;;;;;7.38;4.88;;;13.60;99.90;;;;;;5109586;28;20081;-78
2021/05/28 06:30:10;;;;;;;5.95;4.32;;;13.70;99.90;;;;;;5111007;28;20027;-75
2021/05/28 06:32:36;;;;;;;5.97;3.90;;;13.70;99.90;;;;;;5109636;28;20085;-77
2021/05/28 06:35:03;;;;;;;11.00;4.80;;;13.70;99.90;;;;;;5110501;28;20035;-76
2021/05/28 06:37:29;;;;;;;9.23;4.35;;;13.90;99.90;;;;;;5108639;28;20035;-77
2021/05/28 06:39:54;;;;;;;5.75;3.80;;;13.80;99.90;;;;;;5110747;28;20032;-76
2021/05/28 06:42:20;;;;;;;5.50;3.60;;;13.90;99.90;;;;;;5110189;28;20028;-75
2021/05/28 06:44:46;;;;;;;6.05;3.50;;;14.00;99.90;;;;;;5110195;28;20047;-78
2021/05/28 06:47:11;;;;;;;6.38;4.10;;;14.00;99.90;;;;;;5107880;28;20062;-76
2021/05/28 06:49:37;;;;;;;6.45;3.33;;;14.00;99.90;;;;;;5109036;28;20032;-75
2021/05/28 06:52:03;;;;;;;4.72;3.13;;;14.00;99.90;;;;;;5110286;28;20027;-77
2021/05/28 06:54:30;;;;;;;6.75;3.47;;;14.20;99.90;;;;;;5109172;28;20333;-75
2021/05/28 06:56:56;;;;;;;6.00;3.40;;;14.40;99.90;;;;;;5110500;28;20027;-75
2021/05/28 06:59:22;;;;;;;6.25;3.45;;;14.50;99.90;;;;;;5109613;28;20027;-75
2021/05/28 07:01:47;;;;;;;7.78;3.38;;;14.60;99.90;;;;;;5109987;28;20023;-77
2021/05/28 07:04:13;;;;;;;5.88;3.38;;;14.80;99.90;;;;;;5108497;28;20026;-76
2021/05/28 07:06:39;;;;;;;5.55;3.20;;;14.90;99.90;;;;;;5109142;28;20024;-75
2021/05/28 07:09:06;;;;;;;3.72;2.67;;;14.90;99.90;;;;;;5110019;28;20403;-75
2021/05/28 07:11:32;;;;;;;5.60;2.58;;;14.90;99.90;;;;;;5109635;28;20040;-77
2021/05/28 07:13:58;;;;;;;3.97;2.17;;;15.20;99.90;;;;;;5108770;28;20034;-77
2021/05/28 07:16:24;;;;;;;6.75;3.08;;;15.20;99.90;;;;;;5107890;28;20042;-77
2021/05/28 07:18:50;;;;;;;5.78;2.58;;;15.20;99.90;;;;;;5108161;28;20052;-77
2021/05/28 07:21:16;;;;;;;8.48;3.45;;;15.20;99.90;;;;;;5107221;28;20049;-77
2021/05/28 07:23:42;;;;;;;6.22;3.22;;;15.20;99.90;;;;;;5107977;28;20074;-76
2021/05/28 07:26:08;;;;;;;7.28;2.60;;;15.20;99.90;;;;;;5108053;28;20413;-77
2021/05/28 07:28:34;;;;;;;5.90;2.88;;;15.50;99.90;;;;;;5107799;28;20036;-76
2021/05/28 07:30:59;;;;;;;6.75;2.00;;;15.50;99.90;;;;;;5109724;28;20055;-75
2021/05/28 07:33:26;;;;;;;5.10;2.13;;;15.50;99.90;;;;;;5108440;28;20035;-76
2021/05/28 07:35:51;;;;;;;7.15;1.73;;;15.70;99.90;;;;;;5109218;28;20173;-75
2021/05/28 07:38:17;;;;;;;3.58;2.33;;;15.80;99.90;;;;;;5111787;28;20122;-76
2021/05/28 07:40:44;;;;;;;5.55;1.77;;;15.90;99.90;;;;;;5111326;28;20031;-75
2021/05/28 07:43:11;;;;;;;3.25;1.40;;;16.00;99.90;;;;;;5110501;28;20117;-75
2021/05/28 07:45:38;;;;;;;4.13;1.90;;;16.30;99.90;;;;;;5109006;28;20031;-74
2021/05/28 07:48:05;;;;;;;7.50;1.80;;;16.60;99.90;;;;;;5108720;28;20161;-77
2021/05/28 07:50:46;;;;;;;9.30;1.38;;;16.70;99.90;;;;;;5109971;28;20024;-75
2021/05/28 07:53:22;;;;;;;2.25;1.38;;;16.80;99.90;;;;;;5109497;28;20020;-74
2021/05/28 07:55:48;;;;;;;4.38;1.50;;;16.90;99.90;;;;;;5109216;28;20043;-75
2021/05/28 07:58:14;;;;;;;3.33;1.65;;;17.20;99.90;;;;;;5110245;28;20099;-75
2021/05/28 08:00:40;;;;;;;6.63;1.67;;;17.40;99.50;;;;;;5109576;28;20084;-75
2021/05/28 08:03:06;;;;;;;13.30;2.17;;;17.20;98.80;;;;;;5108995;28;20020;-75
2021/05/28 08:05:32;;;;;;;5.72;1.75;;;17.10;99.10;;;;;;5108289;28;20476;-75
2021/05/28 08:07:58;;;;;;;4.80;1.10;;;17.00;99.30;;;;;;5108682;28;20128;-76
2021/05/28 08:10:24;;;;;;;4.40;1.92;;;16.70;99.60;;;;;;5109114;28;20031;-77
2021/05/28 08:12:50;;;;;;;4.72;1.60;;;16.40;99.80;;;;;;5104390;28;20020;-73
2021/05/28 08:15:18;;;;;;;4.25;1.90;;;16.80;99.90;;;;;;5089295;28;20131;-74
2021/05/28 08:17:45;;;;;;;3.03;1.50;;;16.80;99.60;;;;;;5088074;28;20036;-74
2021/05/28 08:20:12;;;;;;;7.20;1.52;;;16.70;99.80;;;;;;5087374;28;20462;-74
2021/05/28 08:22:37;;;;;;;5.47;2.53;;;17.00;99.90;;;;;;5105542;28;20433;-72
2021/05/28 08:25:04;;;;;;;3.67;1.55;;;17.50;99.90;;;;;;5107144;28;20104;-72
2021/05/28 08:27:29;;;;;;;3.00;1.63;;;18.10;99.70;;;;;;5106268;28;20024;-71
2021/05/28 08:29:55;;;;;;;2.80;1.10;;;18.80;99.90;;;;;;5107376;28;20060;-72
2021/05/28 08:32:21;;;;;;;5.68;0.98;;;19.10;99.90;;;;;;5106022;28;20031;-73
2021/05/28 08:34:46;;;;;;;2.50;1.60;;;19.30;98.70;;;;;;5108920;28;20076;-76
2021/05/28 08:37:12;;;;;;;3.95;1.50;;;19.50;94.20;;;;;;5112258;28;20031;-75
2021/05/28 08:39:38;;;;;;;3.63;1.60;;;18.80;95.10;;;;;;5114561;28;20016;-77
2021/05/28 08:42:05;;;;;;;3.70;1.27;;;19.10;96.20;;;;;;5111574;28;20027;-73
2021/05/28 08:44:32;;;;;;;2.10;1.08;;;19.50;95.30;;;;;;5113417;28;20302;-74
2021/05/28 08:46:59;;;;;;;3.75;1.33;;;19.70;94.00;;;;;;5114191;28;20366;-73
2021/05/28 08:49:24;;;;;;;5.35;1.45;;;19.80;93.70;;;;;;5112072;28;20039;-72
2021/05/28 08:51:50;;;;;;;3.30;1.00;;;20.10;94.30;;;;;;5112661;28;20038;-76
2021/05/28 08:54:19;;;;;;;6.68;1.73;;;20.10;92.50;;;;;;5114042;28;20306;-73
2021/05/28 08:56:49;;;;;;;5.28;1.60;;;20.10;92.30;;;;;;5115126;28;20024;-74
2021/05/28 08:59:15;;;;;;;3.95;1.30;;;19.60;92.60;;;;;;5112186;28;20476;-76
2021/05/28 09:01:41;;;;;;;5.10;2.08;;;19.50;92.80;;;;;;5095492;28;20110;-74
2021/05/28 09:04:08;;;;;;;3.78;1.60;;;18.80;93.10;;;;;;5112832;28;20028;-74
2021/05/28 09:06:45;;;;;;;3.17;1.02;;;18.40;93.50;;;;;;5094324;28;20282;-75
2021/05/28 09:09:13;;;;;;;4.47;1.40;;;18.60;93.80;;;;;;5091474;28;20114;-53
2021/05/28 09:12:00;;;;;;;3.13;1.65;;;19.10;95.60;;;;;;5092069;28;20031;-53
2021/05/28 09:14:43;;;;;;;3.42;1.25;;;19.10;95.20;;;;;;5090452;28;20426;-53
2021/05/28 09:17:11;;;;;;;2.80;0.88;;;19.30;95.00;;;;;;5093150;28;20488;-53
2021/05/28 09:19:39;;;;;;;4.88;1.52;;;19.40;95.90;;;;;;5090454;28;20045;-53
2021/05/28 09:22:07;;;;;;;2.95;1.23;;;19.40;95.60;;;;;;5091363;28;20049;-53
2021/05/28 09:24:37;;;;;;;6.22;1.83;;;19.80;95.30;;;;;;5092401;28;20071;-74
2021/05/28 09:27:24;;;;;;;2.45;0.90;;;19.70;93.60;;;;;;5091694;28;20066;-74
2021/05/28 09:30:10;;;;;;;3.47;1.45;;;19.40;92.80;;;;;;5091341;28;20434;-73
2021/05/28 09:32:38;;;;;;;5.30;1.33;;;18.70;93.40;;;;;;5090752;28;20312;-71
2021/05/28 09:35:08;;;;;;;3.13;1.70;;;18.80;93.00;;;;;;5092637;28;20449;-68
2021/05/28 09:37:46;;;;;;;4.05;1.60;;;19.30;93.30;;;;;;5092077;28;20039;-71
2021/05/28 09:40:17;;;;;;;3.60;1.08;;;19.70;93.10;;;;;;5091112;28;20089;-72
2021/05/28 09:42:58;;;;;;;;;;;19.90;91.90;;;;;;5091703;28;20076;-65
2021/05/28 09:45:37;;;;;;;2.07;1.83;;;20.30;91.30;;;;;;5091627;28;19903;-73
2021/05/28 09:48:14;;;;;;;3.83;1.10;;;21.00;91.10;;;;;;5089977;28;20092;-72
2021/05/28 09:51:06;;;;;;;2.38;1.20;;;21.10;90.60;;;;;;5090358;28;20032;-72
2021/05/28 09:53:43;;;;;;;7.53;1.23;;;21.40;90.00;;;;;;5078974;28;20036;-71
2021/05/28 09:56:31;;;;;;;1.98;1.60;;;21.70;88.20;;;;;;5090635;28;20086;-71
2021/05/28 09:59:02;;;;;;;2.30;0.80;;;21.60;84.90;;;;;;5098084;28;20115;-71
2021/05/28 10:01:31;;;;;;;2.80;2.07;;;20.90;84.50;;;;;;5093522;28;20034;-72
2021/05/28 10:04:07;;;;;;;3.88;2.63;;;21.10;85.60;;;;;;5090840;28;20020;-71
2021/05/28 10:06:35;;;;;;;4.45;1.85;;;21.50;83.90;;;;;;5088521;28;20072;-72
2021/05/28 10:09:07;;;;;;;3.40;0.85;;;22.10;83.00;;;;;;5090500;28;20032;-72
2021/05/28 10:11:34;;;;;;;5.00;1.40;;;22.60;80.40;;;;;;5107309;28;20460;-73
2021/05/28 10:14:00;;;;;;;1.63;0.73;;;22.70;78.80;;;;;;5110662;28;20100;-72
2021/05/28 10:16:26;;;;;;;2.95;0.95;;;23.00;74.50;;;;;;5108202;28;20047;-74
2021/05/28 10:18:54;;;;;;;2.80;1.42;;;23.50;71.90;;;;;;5108473;28;20131;-72
2021/05/28 10:21:21;;;;;;;3.05;0.65;;;22.60;73.30;;;;;;5109658;28;20023;-71
2021/05/28 10:23:47;;;;;;;0.70;0.50;;;22.90;71.70;;;;;;5100718;28;20097;-71
2021/05/28 10:26:16;;;;;;;1.50;0.40;;;23.10;70.70;;;;;;5087877;28;20024;-70
2021/05/28 10:28:45;;;;;;;1.48;0.55;;;23.40;72.50;;;;;;5093370;28;20027;-71
2021/05/28 10:31:12;;;;;;;2.35;1.55;;;23.50;72.30;;;;;;5108508;28;20102;-72
2021/05/28 10:33:53;;;;;;;5.20;1.77;;;22.60;70.70;;;;;;5108892;28;21039;-72
2021/05/28 10:36:48;;;;;;;4.85;1.00;;;21.90;70.40;;;;;;5109343;28;20445;-74
2021/05/28 10:39:15;;;;;;;1.75;0.90;;;21.50;69.30;;;;;;5090887;28;20043;-72
2021/05/28 10:41:52;;;;;;;0.85;0.50;;;21.60;70.10;;;;;;5108795;28;20455;-70
2021/05/28 10:44:25;;;;;;;5.05;2.53;;;22.10;66.70;;;;;;5109068;28;20023;-78
2021/05/28 10:46:57;;;;;;;3.05;1.60;;;22.40;69.80;;;;;;5107880;28;20051;-72
2021/05/28 10:49:46;;;;;;;2.03;1.08;;;22.70;71.50;;;;;;5108737;28;20235;-72
2021/05/28 10:52:27;;;;;;;1.20;0.65;;;22.70;69.10;;;;;;5093541;28;20032;-72
2021/05/28 10:54:58;;;;;;;1.40;0.60;;;23.20;67.40;;;;;;5088936;28;20063;-72
2021/05/28 10:57:28;;;;;;;;;;;23.50;65.20;;;;;;5088774;28;20024;-73
2021/05/28 10:59:58;;;;;;;1.55;1.05;;;22.90;66.20;;;;;;5103621;28;19904;-74
2021/05/28 11:02:53;;;;;;;2.40;1.05;;;22.40;64.40;;;;;;5108732;28;20507;-74
2021/05/28 11:05:39;;;;;;;1.70;0.30;;;21.90;65.70;;;;;;5108662;28;20027;-75
2021/05/28 11:08:42;;;;;;;1.42;0.70;;;21.50;65.30;;;;;;5107380;28;20054;-75
2021/05/28 11:11:08;;;;;;;1.98;0.57;;;21.00;68.10;;;;;;5107699;28;20027;-75
2021/05/28 11:13:57;;;;;;;2.60;0.50;;;20.90;67.40;;;;;;5108483;28;20153;-75
2021/05/28 11:16:24;;;;;;;3.38;0.60;;;21.00;69.40;;;;;;5107363;28;20095;-75
2021/05/28 11:18:50;;;;;;;4.28;1.25;;;20.90;69.70;;;;;;5108752;28;20052;-76
2021/05/28 11:21:19;;;;;;;1.60;0.57;;;21.00;69.90;;;;;;5107762;28;20072;-74
2021/05/28 11:23:47;;;;;;;4.07;0.98;;;20.90;70.30;;;;;;5107274;28;20118;-76
2021/05/28 11:26:27;;;;;;;1.90;0.93;;;20.90;69.80;;;;;;5109978;28;20023;-75
2021/05/28 11:28:58;;;;;;;3.53;1.50;;;21.00;68.20;;;;;;5109560;28;20046;-76
2021/05/28 11:31:25;;;;;;;;;;;21.50;70.30;;;;;;5109244;28;20031;-74
2021/05/28 11:33:56;;;;;;;2.40;1.42;;;22.10;67.30;;;;;;5108895;28;20036;-74
2021/05/28 11:36:25;;;;;;;3.55;0.40;;;22.30;65.90;;;;;;5109868;28;20027;-74
2021/05/28 11:38:58;;;;;;;1.05;0.40;;;22.20;63.20;;;;;;5109916;28;20181;-75
2021/05/28 11:41:46;;;;;;;2.38;0.80;;;22.10;63.50;;;;;;5109297;28;20110;-75
2021/05/28 11:44:13;;;;;;;1.80;0.60;;;22.00;64.90;;;;;;5110384;28;20085;-75
2021/05/28 11:46:44;;;;;;;3.08;1.98;;;22.00;66.40;;;;;;5108450;28;20589;-74
2021/05/28 11:49:10;;;;;;;3.08;1.17;;;22.00;66.90;;;;;;5108904;28;20024;-75
2021/05/28 11:51:36;;;;;;;2.17;0.57;;;22.40;65.60;;;;;;5108000;28;20058;-76
2021/05/28 11:54:23;;;;;;;0.90;0.52;;;22.70;64.50;;;;;;5108357;28;20047;-75
2021/05/28 11:56:56;;;;;;;2.30;1.02;;;23.40;65.70;;;;;;5108848;28;20023;-74
2021/05/28 11:59:43;;;;;;;3.13;2.20;;;22.90;66.20;;;;;;5108388;28;20032;-75
2021/05/28 12:02:08;;;;;;;2.53;0.55;;;23.40;65.60;;;;;;5107768;28;20081;-73
2021/05/28 12:04:35;;;;;;;1.02;0.35;;;23.80;62.30;;;;;;5109739;28;20126;-72
2021/05/28 12:07:10;;;;;;;7.20;1.38;;;23.00;62.50;;;;;;5108071;28;20016;-74
2021/05/28 12:10:06;;;;;;;1.83;0.85;;;23.50;64.00;;;;;;5108927;28;20042;-73
2021/05/28 12:13:08;;;;;;;3.75;1.42;;;24.00;64.30;;;;;;5107590;28;20101;-73
2021/05/28 12:15:42;;;;;;;3.13;1.98;;;24.40;64.00;;;;;;5108806;28;20482;-73
2021/05/28 12:18:28;;;;;;;4.68;1.88;;;24.30;63.70;;;;;;5107809;28;20104;-72
2021/05/28 12:21:04;;;;;;;3.35;1.23;;;23.30;58.90;;;;;;5109798;28;20087;-73
2021/05/28 12:23:35;;;;;;;4.13;0.82;;;23.10;60.90;;;;;;5109184;28;20038;-73
2021/05/28 12:26:08;;;;;;;1.63;0.50;;;23.00;61.30;;;;;;5108269;28;20028;-74
2021/05/28 12:28:45;;;;;;;1.27;0.70;;;22.80;62.00;;;;;;5109529;28;20035;-73
2021/05/28 12:31:10;;;;;;;3.33;0.65;;;22.70;63.30;;;;;;5109933;28;20027;-74
2021/05/28 12:33:43;;;;;;;3.30;0.65;;;22.70;63.80;;;;;;5108084;28;20039;-75
2021/05/28 12:36:13;;;;;;;2.88;0.80;;;22.80;63.90;;;;;;5109005;28;20020;-73
2021/05/28 12:38:44;;;;;;;3.03;0.95;;;22.80;65.10;;;;;;5107978;28;20084;-75
2021/05/28 12:41:14;;;;;;;0.80;0.43;;;22.60;63.90;;;;;;5109987;28;20027;-74
2021/05/28 12:43:43;;;;;;;7.47;1.27;;;22.60;66.30;;;;;;5107992;28;20031;-74
2021/05/28 12:46:20;;;;;;;3.83;0.60;;;22.60;65.80;;;;;;5108124;28;20111;-74
2021/05/28 12:49:07;;;;;;;1.40;1.00;;;22.60;65.30;;;;;;5108016;28;20059;-75
2021/05/28 12:51:36;;;;;;;2.13;0.80;;;23.40;65.60;;;;;;5109396;28;20100;-75
2021/05/28 12:54:13;;;;;;;3.47;2.90;;;23.90;63.50;;;;;;5107990;28;20369;-73